Hlavní strana
METAR-TAF:

METAR-TAF

Letiště :

Tamanrasset, Alžírsko

zeměpisná šířka: 22-49N, zeměpisná délka: 005-28E, výška: 1377 m

Aktuální stav počasí

Zpráva byla vytvořena před 22 minutami, v 08:00 UTC
Severoseverovýchodní vítr 3 kt, proměnlivý mezi severoseverozápadním a východním
Teplota 17°C
Vlhkost vzduchu 20%
Tlak 1022 hPa
Viditelnost 10 km a více
Žádná oblačnost pod 1500 m, nevyskytují se cumulonimby.

METAR: DAAT 110800Z 02003KT 340V100 CAVOK 17/M06 Q1022

Čas: 09:22 (08:22 UTC)

Předpověď počasí

Zpráva byla vytvořena před 3 hodinami a 22 minutami, v 05:00 UTC
Předpověď platná od 11 v 06 UTC do 12 v 06 UTC
Severoseverovýchodní vítr 10 kt
Viditelnost 10 km a více
Žádná oblačnost pod 1500 m, nevyskytují se cumulonimby.
Pravděpodobnost 30% :
Dočasný
od 11 v 08 UTC do 11 v 14 UTC
Východoseverovýchodní vítr 15 kt s nárazy do 25 kt

TAF: DAAT 110500Z 1106/1206 02010KT CAVOK PROB30 TEMPO 1108/1114 06015G25KT

Stav a předpovědi počasí z více než 4 000 letišť (zprávy METAR a TAF).

Červené a žluté tečky na mapě představují dostupné meteorologické stanice.

Když kurzor umístíte na tečku, zobrazí se název stanice.

Pak kliknutím zobrazíte stav a předpověď počasí.

Chcete-li změnit mapu, kliknutím na zelené tlačítko se znaménkem +mapu přiblížíte, kliknutím na zelené tlačítko se znaménkem – mapu oddálíte a kliknutím na zelené šipky přejdete na sousední mapy.


METAR-TAF: